sensor_id;sensor_type;location;lat;lon;timestamp;pressure;altitude;pressure_sealevel;temperature;humidity
39363;BME280;25088;43.238;23.110;2023-03-18T00:00:38;96981.59;;;2.99;97.79
39363;BME280;25088;43.238;23.110;2023-03-18T00:03:04;96974.09;;;2.94;98.79
39363;BME280;25088;43.238;23.110;2023-03-18T00:05:31;96977.19;;;2.91;97.79
39363;BME280;25088;43.238;23.110;2023-03-18T00:07:57;96976.72;;;2.88;98.93
39363;BME280;25088;43.238;23.110;2023-03-18T00:10:22;96957.31;;;2.71;99.37
39363;BME280;25088;43.238;23.110;2023-03-18T00:12:48;96969.19;;;2.76;100.00
39363;BME280;25088;43.238;23.110;2023-03-18T00:15:14;96970.19;;;2.69;100.00
39363;BME280;25088;43.238;23.110;2023-03-18T00:17:42;96966.00;;;2.66;100.00
39363;BME280;25088;43.238;23.110;2023-03-18T00:20:09;96958.94;;;2.65;99.79
39363;BME280;25088;43.238;23.110;2023-03-18T00:22:37;96954.75;;;2.63;99.92
39363;BME280;25088;43.238;23.110;2023-03-18T00:25:05;96948.50;;;2.55;100.00
39363;BME280;25088;43.238;23.110;2023-03-18T00:27:31;96949.47;;;2.48;100.00
39363;BME280;25088;43.238;23.110;2023-03-18T00:29:58;96942.94;;;2.36;100.00
39363;BME280;25088;43.238;23.110;2023-03-18T00:32:27;96937.88;;;2.26;100.00
39363;BME280;25088;43.238;23.110;2023-03-18T00:34:53;96945.34;;;2.24;100.00
39363;BME280;25088;43.238;23.110;2023-03-18T00:37:19;96947.16;;;2.23;100.00
39363;BME280;25088;43.238;23.110;2023-03-18T00:39:58;96938.00;;;2.18;100.00
39363;BME280;25088;43.238;23.110;2023-03-18T00:42:29;96935.31;;;2.18;100.00
39363;BME280;25088;43.238;23.110;2023-03-18T00:45:01;96936.09;;;2.12;100.00
39363;BME280;25088;43.238;23.110;2023-03-18T00:47:28;96927.56;;;1.87;100.00
39363;BME280;25088;43.238;23.110;2023-03-18T00:49:53;96933.50;;;1.82;100.00
39363;BME280;25088;43.238;23.110;2023-03-18T00:52:19;96931.38;;;1.77;100.00
39363;BME280;25088;43.238;23.110;2023-03-18T00:54:44;96929.53;;;1.78;100.00
39363;BME280;25088;43.238;23.110;2023-03-18T00:57:10;96929.53;;;1.78;100.00
39363;BME280;25088;43.238;23.110;2023-03-18T00:59:35;96930.34;;;1.78;100.00
39363;BME280;25088;43.238;23.110;2023-03-18T01:02:01;96931.94;;;1.73;100.00
39363;BME280;25088;43.238;23.110;2023-03-18T01:04:28;96923.19;;;1.64;100.00
39363;BME280;25088;43.238;23.110;2023-03-18T01:06:53;96921.31;;;1.65;100.00
39363;BME280;25088;43.238;23.110;2023-03-18T01:09:19;96926.59;;;1.58;100.00
39363;BME280;25088;43.238;23.110;2023-03-18T01:11:44;96893.94;;;1.40;100.00
39363;BME280;25088;43.238;23.110;2023-03-18T01:14:10;96924.13;;;1.57;99.90
39363;BME280;25088;43.238;23.110;2023-03-18T01:16:36;96918.09;;;1.54;100.00
39363;BME280;25088;43.238;23.110;2023-03-18T01:19:02;96920.13;;;1.52;99.83
39363;BME280;25088;43.238;23.110;2023-03-18T01:21:28;96908.63;;;1.44;99.37
39363;BME280;25088;43.238;23.110;2023-03-18T01:23:54;96915.16;;;1.49;98.95
39363;BME280;25088;43.238;23.110;2023-03-18T01:26:19;96925.19;;;1.41;99.32
39363;BME280;25088;43.238;23.110;2023-03-18T01:28:45;96915.25;;;1.41;99.02
39363;BME280;25088;43.238;23.110;2023-03-18T01:31:11;96909.66;;;1.43;98.85
39363;BME280;25088;43.238;23.110;2023-03-18T01:33:37;96914.41;;;1.41;98.75
39363;BME280;25088;43.238;23.110;2023-03-18T01:36:03;96900.34;;;1.24;98.42
39363;BME280;25088;43.238;23.110;2023-03-18T01:38:30;96913.31;;;1.35;98.40
39363;BME280;25088;43.238;23.110;2023-03-18T01:40:57;96907.19;;;1.26;99.06
39363;BME280;25088;43.238;23.110;2023-03-18T01:43:28;96906.66;;;1.31;98.94
39363;BME280;25088;43.238;23.110;2023-03-18T01:45:57;96906.56;;;1.24;98.64
39363;BME280;25088;43.238;23.110;2023-03-18T01:48:25;96916.66;;;1.22;98.72
39363;BME280;25088;43.238;23.110;2023-03-18T01:50:57;96913.78;;;1.24;98.75
39363;BME280;25088;43.238;23.110;2023-03-18T01:53:27;96905.63;;;1.17;99.05
39363;BME280;25088;43.238;23.110;2023-03-18T01:55:54;96905.63;;;1.17;98.03
39363;BME280;25088;43.238;23.110;2023-03-18T01:58:30;96904.72;;;1.25;97.86
39363;BME280;25088;43.238;23.110;2023-03-18T02:01:04;96896.28;;;1.13;97.60
39363;BME280;25088;43.238;23.110;2023-03-18T02:03:32;96910.00;;;1.18;96.92
39363;BME280;25088;43.238;23.110;2023-03-18T02:05:58;96847.00;;;0.76;97.22
39363;BME280;25088;43.238;23.110;2023-03-18T02:08:24;96899.06;;;1.20;96.66
39363;BME280;25088;43.238;23.110;2023-03-18T02:10:50;96909.44;;;1.23;95.97
39363;BME280;25088;43.238;23.110;2023-03-18T02:13:16;96904.50;;;1.26;95.72
39363;BME280;25088;43.238;23.110;2023-03-18T02:15:55;96904.78;;;1.32;95.61
39363;BME280;25088;43.238;23.110;2023-03-18T02:18:35;96908.50;;;1.31;95.60
39363;BME280;25088;43.238;23.110;2023-03-18T02:29:16;96917.50;;;1.23;95.89
39363;BME280;25088;43.238;23.110;2023-03-18T02:31:44;96922.50;;;1.26;95.64
39363;BME280;25088;43.238;23.110;2023-03-18T02:34:10;96919.81;;;1.26;96.21
39363;BME280;25088;43.238;23.110;2023-03-18T02:36:36;96907.41;;;1.10;96.26
39363;BME280;25088;43.238;23.110;2023-03-18T02:39:03;96901.09;;;1.03;97.11
39363;BME280;25088;43.238;23.110;2023-03-18T02:41:31;96924.72;;;1.22;96.71
39363;BME280;25088;43.238;23.110;2023-03-18T02:43:58;96920.47;;;1.28;96.16
39363;BME280;25088;43.238;23.110;2023-03-18T02:48:57;96922.78;;;1.16;98.14
39363;BME280;25088;43.238;23.110;2023-03-18T02:51:24;96914.81;;;1.08;98.63
39363;BME280;25088;43.238;23.110;2023-03-18T02:53:53;96924.66;;;1.01;98.89
39363;BME280;25088;43.238;23.110;2023-03-18T02:56:20;96918.34;;;1.09;99.09
39363;BME280;25088;43.238;23.110;2023-03-18T02:58:47;96934.66;;;1.22;99.03
39363;BME280;25088;43.238;23.110;2023-03-18T03:01:13;96907.69;;;1.15;98.82
39363;BME280;25088;43.238;23.110;2023-03-18T03:03:39;96902.47;;;1.14;98.89
39363;BME280;25088;43.238;23.110;2023-03-18T03:06:06;96932.59;;;1.39;98.09
39363;BME280;25088;43.238;23.110;2023-03-18T03:08:31;96919.97;;;1.39;97.26
39363;BME280;25088;43.238;23.110;2023-03-18T03:10:57;96928.59;;;1.49;96.92
39363;BME280;25088;43.238;23.110;2023-03-18T03:13:23;96928.00;;;1.54;96.65
39363;BME280;25088;43.238;23.110;2023-03-18T03:15:49;96929.00;;;1.68;95.97
39363;BME280;25088;43.238;23.110;2023-03-18T03:18:15;96918.06;;;1.69;95.27
39363;BME280;25088;43.238;23.110;2023-03-18T03:20:40;96927.50;;;1.80;93.88
39363;BME280;25088;43.238;23.110;2023-03-18T03:23:08;96931.53;;;1.91;94.12
39363;BME280;25088;43.238;23.110;2023-03-18T03:25:35;96929.09;;;1.96;94.76
39363;BME280;25088;43.238;23.110;2023-03-18T03:28:01;96934.75;;;2.01;94.52
39363;BME280;25088;43.238;23.110;2023-03-18T03:30:28;96912.13;;;1.95;93.99
39363;BME280;25088;43.238;23.110;2023-03-18T03:32:54;96930.31;;;2.15;92.54
39363;BME280;25088;43.238;23.110;2023-03-18T03:35:21;96929.75;;;2.19;92.48
39363;BME280;25088;43.238;23.110;2023-03-18T03:37:48;96901.06;;;2.12;92.86
39363;BME280;25088;43.238;23.110;2023-03-18T03:40:15;96937.09;;;2.32;93.19
39363;BME280;25088;43.238;23.110;2023-03-18T03:42:42;96924.97;;;2.43;91.74
39363;BME280;25088;43.238;23.110;2023-03-18T03:45:10;96931.03;;;2.51;91.62
39363;BME280;25088;43.238;23.110;2023-03-18T03:47:36;96931.91;;;2.58;90.00
39363;BME280;25088;43.238;23.110;2023-03-18T03:50:03;96926.81;;;2.64;89.95
39363;BME280;25088;43.238;23.110;2023-03-18T03:52:30;96917.22;;;2.61;90.18
39363;BME280;25088;43.238;23.110;2023-03-18T03:54:56;96931.00;;;2.73;89.81
39363;BME280;25088;43.238;23.110;2023-03-18T03:57:22;96932.47;;;2.75;88.19
39363;BME280;25088;43.238;23.110;2023-03-18T03:59:49;96939.91;;;2.73;89.98
39363;BME280;25088;43.238;23.110;2023-03-18T04:02:15;96932.44;;;2.69;90.34
39363;BME280;25088;43.238;23.110;2023-03-18T04:04:41;96930.13;;;2.66;90.92
39363;BME280;25088;43.238;23.110;2023-03-18T04:07:07;96925.31;;;2.61;92.33
39363;BME280;25088;43.238;23.110;2023-03-18T04:09:33;96927.56;;;2.57;94.35
39363;BME280;25088;43.238;23.110;2023-03-18T04:12:00;96926.50;;;2.52;94.93
39363;BME280;25088;43.238;23.110;2023-03-18T04:14:26;96939.25;;;2.65;96.10
39363;BME280;25088;43.238;23.110;2023-03-18T04:16:52;96937.75;;;2.62;96.45
39363;BME280;25088;43.238;23.110;2023-03-18T04:19:20;96915.25;;;2.48;95.87
39363;BME280;25088;43.238;23.110;2023-03-18T04:21:45;96928.84;;;2.62;95.61
39363;BME280;25088;43.238;23.110;2023-03-18T04:24:11;96932.94;;;2.57;97.88
39363;BME280;25088;43.238;23.110;2023-03-18T04:26:37;96936.94;;;2.62;97.07
39363;BME280;25088;43.238;23.110;2023-03-18T04:29:02;96935.53;;;2.66;96.68
39363;BME280;25088;43.238;23.110;2023-03-18T04:31:28;96906.53;;;2.46;96.11
39363;BME280;25088;43.238;23.110;2023-03-18T04:33:53;96933.44;;;2.68;96.28
39363;BME280;25088;43.238;23.110;2023-03-18T04:36:19;96945.31;;;2.73;95.32
39363;BME280;25088;43.238;23.110;2023-03-18T04:38:45;96939.56;;;2.83;94.50
39363;BME280;25088;43.238;23.110;2023-03-18T04:41:10;96950.56;;;2.81;93.52
39363;BME280;25088;43.238;23.110;2023-03-18T04:43:36;96944.97;;;2.83;93.71
39363;BME280;25088;43.238;23.110;2023-03-18T04:46:01;96941.50;;;2.89;94.06
39363;BME280;25088;43.238;23.110;2023-03-18T04:48:27;96939.22;;;2.93;93.33
39363;BME280;25088;43.238;23.110;2023-03-18T04:50:52;96940.69;;;2.95;92.98
39363;BME280;25088;43.238;23.110;2023-03-18T04:53:19;96914.91;;;2.86;92.69
39363;BME280;25088;43.238;23.110;2023-03-18T04:55:44;96935.16;;;3.03;92.77
39363;BME280;25088;43.238;23.110;2023-03-18T04:58:10;96926.81;;;2.98;93.06
39363;BME280;25088;43.238;23.110;2023-03-18T05:00:36;96924.06;;;2.92;93.47
39363;BME280;25088;43.238;23.110;2023-03-18T05:03:02;96923.09;;;2.99;93.95
39363;BME280;25088;43.238;23.110;2023-03-18T05:05:28;96932.19;;;2.98;93.49
39363;BME280;25088;43.238;23.110;2023-03-18T05:07:54;96927.69;;;3.05;93.09
39363;BME280;25088;43.238;23.110;2023-03-18T05:10:19;96921.94;;;3.15;92.22
39363;BME280;25088;43.238;23.110;2023-03-18T05:12:45;96931.25;;;3.13;92.81
39363;BME280;25088;43.238;23.110;2023-03-18T05:15:11;96928.97;;;3.09;92.71
39363;BME280;25088;43.238;23.110;2023-03-18T05:17:37;96931.09;;;3.21;92.05
39363;BME280;25088;43.238;23.110;2023-03-18T05:20:04;96920.75;;;3.24;90.67
39363;BME280;25088;43.238;23.110;2023-03-18T05:22:30;96927.44;;;3.35;89.76
39363;BME280;25088;43.238;23.110;2023-03-18T05:24:55;96931.88;;;3.56;88.34
39363;BME280;25088;43.238;23.110;2023-03-18T05:27:21;96932.88;;;4.03;85.63
39363;BME280;25088;43.238;23.110;2023-03-18T05:29:47;96937.91;;;4.46;81.54
39363;BME280;25088;43.238;23.110;2023-03-18T05:32:12;96931.84;;;4.97;79.56
39363;BME280;25088;43.238;23.110;2023-03-18T05:34:39;96925.91;;;5.46;76.96
39363;BME280;25088;43.238;23.110;2023-03-18T05:37:07;96924.81;;;6.12;73.85
39363;BME280;25088;43.238;23.110;2023-03-18T05:39:34;96937.72;;;6.73;71.38
39363;BME280;25088;43.238;23.110;2023-03-18T05:42:00;96934.72;;;7.06;67.77
39363;BME280;25088;43.238;23.110;2023-03-18T05:44:26;96943.19;;;7.53;64.76
39363;BME280;25088;43.238;23.110;2023-03-18T05:46:52;96936.78;;;7.66;62.53
39363;BME280;25088;43.238;23.110;2023-03-18T05:49:18;96941.22;;;7.78;61.66
39363;BME280;25088;43.238;23.110;2023-03-18T05:51:44;96950.03;;;7.92;61.73
39363;BME280;25088;43.238;23.110;2023-03-18T05:54:11;96942.97;;;8.21;60.91
39363;BME280;25088;43.238;23.110;2023-03-18T05:56:36;96935.66;;;8.34;58.86
39363;BME280;25088;43.238;23.110;2023-03-18T05:59:02;96931.50;;;8.49;56.05
39363;BME280;25088;43.238;23.110;2023-03-18T06:01:30;96921.97;;;8.82;54.35
39363;BME280;25088;43.238;23.110;2023-03-18T06:03:57;96936.31;;;9.13;56.07
39363;BME280;25088;43.238;23.110;2023-03-18T06:06:24;96938.91;;;9.19;54.24
39363;BME280;25088;43.238;23.110;2023-03-18T06:08:50;96917.84;;;9.38;53.81
39363;BME280;25088;43.238;23.110;2023-03-18T06:11:16;96935.22;;;9.72;53.11
39363;BME280;25088;43.238;23.110;2023-03-18T06:13:41;96939.31;;;9.87;51.78
39363;BME280;25088;43.238;23.110;2023-03-18T06:16:07;96921.69;;;9.77;52.06
39363;BME280;25088;43.238;23.110;2023-03-18T06:18:33;96939.47;;;10.08;50.93
39363;BME280;25088;43.238;23.110;2023-03-18T06:20:59;96931.09;;;10.39;50.65
39363;BME280;25088;43.238;23.110;2023-03-18T06:23:25;96924.03;;;10.54;49.83
39363;BME280;25088;43.238;23.110;2023-03-18T06:25:50;96934.31;;;10.81;48.70
39363;BME280;25088;43.238;23.110;2023-03-18T06:28:16;96937.63;;;11.17;47.66
39363;BME280;25088;43.238;23.110;2023-03-18T06:30:42;96929.31;;;11.45;46.34
39363;BME280;25088;43.238;23.110;2023-03-18T06:33:08;96938.81;;;11.59;46.92
39363;BME280;25088;43.238;23.110;2023-03-18T06:35:35;96941.22;;;11.78;46.59
39363;BME280;25088;43.238;23.110;2023-03-18T06:38:01;96946.56;;;11.84;46.09
39363;BME280;25088;43.238;23.110;2023-03-18T06:40:27;96941.47;;;12.15;45.67
39363;BME280;25088;43.238;23.110;2023-03-18T06:42:53;96935.84;;;12.49;46.67
39363;BME280;25088;43.238;23.110;2023-03-18T06:45:19;96938.00;;;12.74;45.99
39363;BME280;25088;43.238;23.110;2023-03-18T06:47:45;96940.03;;;12.83;44.06
39363;BME280;25088;43.238;23.110;2023-03-18T06:50:12;96943.19;;;13.34;43.23
39363;BME280;25088;43.238;23.110;2023-03-18T06:52:38;96936.75;;;13.56;42.32
39363;BME280;25088;43.238;23.110;2023-03-18T06:55:04;96933.56;;;13.69;44.09
39363;BME280;25088;43.238;23.110;2023-03-18T06:57:33;96924.03;;;13.87;41.59
39363;BME280;25088;43.238;23.110;2023-03-18T07:00:00;96920.88;;;14.15;40.08
39363;BME280;25088;43.238;23.110;2023-03-18T07:02:25;96901.72;;;14.46;40.26
39363;BME280;25088;43.238;23.110;2023-03-18T07:04:51;96900.88;;;14.40;38.49
39363;BME280;25088;43.238;23.110;2023-03-18T07:07:17;96913.06;;;14.70;38.22
39363;BME280;25088;43.238;23.110;2023-03-18T07:09:44;96904.72;;;14.34;39.18
39363;BME280;25088;43.238;23.110;2023-03-18T07:12:11;96903.72;;;14.81;37.94
39363;BME280;25088;43.238;23.110;2023-03-18T07:14:38;96910.75;;;14.31;39.10
39363;BME280;25088;43.238;23.110;2023-03-18T07:17:04;96907.50;;;14.44;39.70
39363;BME280;25088;43.238;23.110;2023-03-18T07:19:29;96905.13;;;14.68;40.08
39363;BME280;25088;43.238;23.110;2023-03-18T07:21:56;96879.28;;;15.15;39.65
39363;BME280;25088;43.238;23.110;2023-03-18T07:24:22;96869.38;;;15.19;36.27
39363;BME280;25088;43.238;23.110;2023-03-18T07:26:47;96894.06;;;15.50;35.92
39363;BME280;25088;43.238;23.110;2023-03-18T07:29:15;96897.34;;;15.77;35.46
39363;BME280;25088;43.238;23.110;2023-03-18T07:31:40;96869.41;;;16.10;35.74
39363;BME280;25088;43.238;23.110;2023-03-18T07:34:07;96892.34;;;16.49;34.62
39363;BME280;25088;43.238;23.110;2023-03-18T07:36:33;96900.78;;;16.68;34.64
39363;BME280;25088;43.238;23.110;2023-03-18T07:39:02;96903.94;;;16.96;33.51
39363;BME280;25088;43.238;23.110;2023-03-18T07:41:27;96898.94;;;16.98;33.13
39363;BME280;25088;43.238;23.110;2023-03-18T07:43:53;96900.28;;;17.35;32.66
39363;BME280;25088;43.238;23.110;2023-03-18T07:46:20;96906.41;;;17.61;32.61
39363;BME280;25088;43.238;23.110;2023-03-18T07:48:45;96912.34;;;17.44;33.41
39363;BME280;25088;43.238;23.110;2023-03-18T07:51:12;96913.94;;;17.21;36.17
39363;BME280;25088;43.238;23.110;2023-03-18T07:53:39;96919.63;;;16.95;37.28
39363;BME280;25088;43.238;23.110;2023-03-18T07:56:05;96914.09;;;16.56;38.67
39363;BME280;25088;43.238;23.110;2023-03-18T07:58:32;96947.31;;;16.15;39.15
39363;BME280;25088;43.238;23.110;2023-03-18T08:00:58;96933.72;;;15.34;40.48
39363;BME280;25088;43.238;23.110;2023-03-18T08:03:24;96951.28;;;15.89;39.93
39363;BME280;25088;43.238;23.110;2023-03-18T08:05:50;96944.72;;;15.34;40.78
39363;BME280;25088;43.238;23.110;2023-03-18T08:08:16;96955.19;;;15.47;40.16
39363;BME280;25088;43.238;23.110;2023-03-18T08:10:41;96951.34;;;15.28;39.12
39363;BME280;25088;43.238;23.110;2023-03-18T08:13:07;96955.44;;;15.66;38.70
39363;BME280;25088;43.238;23.110;2023-03-18T08:15:33;96960.00;;;16.21;38.30
39363;BME280;25088;43.238;23.110;2023-03-18T08:17:58;96961.66;;;16.82;37.71
39363;BME280;25088;43.238;23.110;2023-03-18T08:20:25;96951.28;;;16.59;37.16
39363;BME280;25088;43.238;23.110;2023-03-18T08:22:51;96973.53;;;16.08;37.80
39363;BME280;25088;43.238;23.110;2023-03-18T08:25:18;96978.28;;;15.87;37.67
39363;BME280;25088;43.238;23.110;2023-03-18T08:27:46;96966.06;;;16.18;37.18
39363;BME280;25088;43.238;23.110;2023-03-18T08:30:12;96926.34;;;16.24;37.42
39363;BME280;25088;43.238;23.110;2023-03-18T08:32:37;96976.41;;;16.47;38.14
39363;BME280;25088;43.238;23.110;2023-03-18T08:35:03;96980.94;;;16.87;36.20
39363;BME280;25088;43.238;23.110;2023-03-18T08:37:29;96985.91;;;17.24;36.23
39363;BME280;25088;43.238;23.110;2023-03-18T08:39:55;96990.91;;;17.56;34.18
39363;BME280;25088;43.238;23.110;2023-03-18T08:42:20;96993.81;;;17.02;34.82
39363;BME280;25088;43.238;23.110;2023-03-18T08:44:46;96990.53;;;16.95;35.55
39363;BME280;25088;43.238;23.110;2023-03-18T08:47:12;96990.84;;;17.27;34.94
39363;BME280;25088;43.238;23.110;2023-03-18T08:49:37;96983.31;;;16.99;35.60
39363;BME280;25088;43.238;23.110;2023-03-18T08:52:03;96991.06;;;17.36;34.84
39363;BME280;25088;43.238;23.110;2023-03-18T08:54:29;96976.78;;;17.92;35.20
39363;BME280;25088;43.238;23.110;2023-03-18T08:56:55;97002.88;;;17.81;34.14
39363;BME280;25088;43.238;23.110;2023-03-18T08:59:21;97006.06;;;15.44;37.97
39363;BME280;25088;43.238;23.110;2023-03-18T09:01:46;96976.63;;;15.75;37.23
39363;BME280;25088;43.238;23.110;2023-03-18T09:04:13;97005.28;;;17.53;35.63
39363;BME280;25088;43.238;23.110;2023-03-18T09:06:39;97007.94;;;16.10;36.74
39363;BME280;25088;43.238;23.110;2023-03-18T09:09:06;97001.31;;;16.26;37.03
39363;BME280;25088;43.238;23.110;2023-03-18T09:11:32;97026.25;;;14.57;38.04
39363;BME280;25088;43.238;23.110;2023-03-18T09:13:58;97028.72;;;13.31;41.22
39363;BME280;25088;43.238;23.110;2023-03-18T09:16:23;97024.69;;;14.86;39.18
39363;BME280;25088;43.238;23.110;2023-03-18T09:18:49;97013.78;;;15.52;37.69
39363;BME280;25088;43.238;23.110;2023-03-18T09:21:14;97010.97;;;16.89;35.16
39363;BME280;25088;43.238;23.110;2023-03-18T09:23:40;97007.69;;;16.87;34.79
39363;BME280;25088;43.238;23.110;2023-03-18T09:26:06;97003.59;;;16.69;35.22
39363;BME280;25088;43.238;23.110;2023-03-18T09:28:31;97006.56;;;14.90;36.23
39363;BME280;25088;43.238;23.110;2023-03-18T09:30:58;97024.94;;;14.22;38.26
39363;BME280;25088;43.238;23.110;2023-03-18T09:33:23;96996.84;;;13.57;39.37
39363;BME280;25088;43.238;23.110;2023-03-18T09:35:49;97025.59;;;13.92;38.49
39363;BME280;25088;43.238;23.110;2023-03-18T09:38:17;97022.56;;;15.24;36.83
39363;BME280;25088;43.238;23.110;2023-03-18T09:43:43;97015.00;;;14.06;38.05
39363;BME280;25088;43.238;23.110;2023-03-18T09:48:48;97020.53;;;14.68;37.58
39363;BME280;25088;43.238;23.110;2023-03-18T09:54:22;97031.78;;;13.08;41.59
39363;BME280;25088;43.238;23.110;2023-03-18T09:56:53;97012.38;;;11.95;43.15
39363;BME280;25088;43.238;23.110;2023-03-18T09:59:39;97043.38;;;11.83;44.26
39363;BME280;25088;43.238;23.110;2023-03-18T10:02:22;97039.22;;;11.13;45.18
39363;BME280;25088;43.238;23.110;2023-03-18T10:04:55;97055.13;;;10.71;46.40
39363;BME280;25088;43.238;23.110;2023-03-18T10:07:27;97054.88;;;10.73;46.50
39363;BME280;25088;43.238;23.110;2023-03-18T10:10:08;97044.63;;;11.25;46.41
39363;BME280;25088;43.238;23.110;2023-03-18T10:12:41;97051.25;;;11.46;45.27
39363;BME280;25088;43.238;23.110;2023-03-18T10:17:42;97053.34;;;10.94;46.02
39363;BME280;25088;43.238;23.110;2023-03-18T10:26:15;97041.72;;;11.32;46.23
39363;BME280;25088;43.238;23.110;2023-03-18T10:29:06;97030.41;;;14.17;39.58
39363;BME280;25088;43.238;23.110;2023-03-18T10:34:18;97033.75;;;13.39;39.27
39363;BME280;25088;43.238;23.110;2023-03-18T10:37:22;97043.66;;;12.21;39.96
39363;BME280;25088;43.238;23.110;2023-03-18T10:39:51;97044.38;;;11.10;42.05
39363;BME280;25088;43.238;23.110;2023-03-18T10:42:25;97046.13;;;10.87;42.41
39363;BME280;25088;43.238;23.110;2023-03-18T10:44:53;97053.22;;;10.72;42.46
39363;BME280;25088;43.238;23.110;2023-03-18T10:47:32;97046.69;;;10.73;42.88
39363;BME280;25088;43.238;23.110;2023-03-18T10:50:05;97029.97;;;10.69;42.89
39363;BME280;25088;43.238;23.110;2023-03-18T10:55:35;97021.81;;;9.94;43.90
39363;BME280;25088;43.238;23.110;2023-03-18T10:58:28;97020.16;;;12.25;40.24
39363;BME280;25088;43.238;23.110;2023-03-18T11:00:53;97023.00;;;12.57;39.29
39363;BME280;25088;43.238;23.110;2023-03-18T11:03:40;97019.19;;;13.12;38.41
39363;BME280;25088;43.238;23.110;2023-03-18T11:06:15;97013.72;;;13.76;37.67
39363;BME280;25088;43.238;23.110;2023-03-18T11:08:46;97020.47;;;12.99;37.81
39363;BME280;25088;43.238;23.110;2023-03-18T11:14:06;97020.44;;;12.72;37.86
39363;BME280;25088;43.238;23.110;2023-03-18T11:16:40;97017.41;;;12.25;38.21
39363;BME280;25088;43.238;23.110;2023-03-18T11:24:36;97018.44;;;11.63;39.57
39363;BME280;25088;43.238;23.110;2023-03-18T11:29:42;97009.91;;;13.82;37.40
39363;BME280;25088;43.238;23.110;2023-03-18T11:32:30;96992.72;;;13.55;35.97
39363;BME280;25088;43.238;23.110;2023-03-18T11:35:01;96993.91;;;13.05;36.92
39363;BME280;25088;43.238;23.110;2023-03-18T11:42:39;96979.53;;;11.95;37.75
39363;BME280;25088;43.238;23.110;2023-03-18T11:45:22;96991.84;;;12.14;38.11
39363;BME280;25088;43.238;23.110;2023-03-18T11:47:52;96967.66;;;12.55;36.88
39363;BME280;25088;43.238;23.110;2023-03-18T11:50:22;96984.81;;;12.45;36.88
39363;BME280;25088;43.238;23.110;2023-03-18T11:53:37;96980.88;;;12.36;37.37
39363;BME280;25088;43.238;23.110;2023-03-18T11:56:56;96979.53;;;11.95;38.76
39363;BME280;25088;43.238;23.110;2023-03-18T11:59:20;96985.16;;;11.88;38.31
39363;BME280;25088;43.238;23.110;2023-03-18T12:10:36;96944.44;;;16.95;30.77
39363;BME280;25088;43.238;23.110;2023-03-18T12:20:50;96928.59;;;20.06;26.12
39363;BME280;25088;43.238;23.110;2023-03-18T12:34:02;96949.22;;;16.25;29.76
39363;BME280;25088;43.238;23.110;2023-03-18T12:47:17;96936.81;;;16.87;29.49
39363;BME280;25088;43.238;23.110;2023-03-18T12:55:09;96965.72;;;17.29;28.56
39363;BME280;25088;43.238;23.110;2023-03-18T12:57:38;96965.34;;;17.07;27.78
39363;BME280;25088;43.238;23.110;2023-03-18T13:00:33;96958.94;;;16.12;28.81
39363;BME280;25088;43.238;23.110;2023-03-18T13:05:57;96961.75;;;15.56;29.46
39363;BME280;25088;43.238;23.110;2023-03-18T13:08:38;96982.88;;;14.64;30.71
39363;BME280;25088;43.238;23.110;2023-03-18T13:14:25;96977.31;;;13.49;32.20
39363;BME280;25088;43.238;23.110;2023-03-18T13:16:54;96975.09;;;13.45;32.36
39363;BME280;25088;43.238;23.110;2023-03-18T13:19:20;96971.38;;;13.67;31.61
39363;BME280;25088;43.238;23.110;2023-03-18T13:21:50;96940.59;;;15.57;29.39
39363;BME280;25088;43.238;23.110;2023-03-18T13:30:14;96952.50;;;17.89;27.80
39363;BME280;25088;43.238;23.110;2023-03-18T13:36:01;96946.63;;;19.05;26.83
39363;BME280;25088;43.238;23.110;2023-03-18T13:41:28;96960.41;;;16.49;28.66
39363;BME280;25088;43.238;23.110;2023-03-18T13:44:03;96964.53;;;15.10;30.39
39363;BME280;25088;43.238;23.110;2023-03-18T13:46:31;96973.69;;;14.38;32.14
39363;BME280;25088;43.238;23.110;2023-03-18T13:49:00;96972.22;;;14.20;31.87
39363;BME280;25088;43.238;23.110;2023-03-18T13:54:01;96949.13;;;16.45;29.19
39363;BME280;25088;43.238;23.110;2023-03-18T13:59:05;96950.22;;;16.99;28.25
39363;BME280;25088;43.238;23.110;2023-03-18T14:01:49;96952.06;;;17.48;27.68
39363;BME280;25088;43.238;23.110;2023-03-18T14:06:58;96944.22;;;18.13;28.33
39363;BME280;25088;43.238;23.110;2023-03-18T14:09:33;96948.25;;;17.73;28.11
39363;BME280;25088;43.238;23.110;2023-03-18T14:12:16;96941.13;;;17.67;28.31
39363;BME280;25088;43.238;23.110;2023-03-18T14:17:50;96942.59;;;16.86;28.28
39363;BME280;25088;43.238;23.110;2023-03-18T14:20:19;96947.56;;;16.24;29.04
39363;BME280;25088;43.238;23.110;2023-03-18T14:22:50;96946.22;;;16.26;29.80
39363;BME280;25088;43.238;23.110;2023-03-18T14:27:53;96948.94;;;16.86;28.44
39363;BME280;25088;43.238;23.110;2023-03-18T14:35:57;96953.50;;;16.57;29.91
39363;BME280;25088;43.238;23.110;2023-03-18T14:38:26;96959.41;;;16.24;28.90
39363;BME280;25088;43.238;23.110;2023-03-18T14:40:56;96954.72;;;16.30;29.43
39363;BME280;25088;43.238;23.110;2023-03-18T14:43:42;96940.53;;;16.57;29.03
39363;BME280;25088;43.238;23.110;2023-03-18T14:46:16;96938.03;;;16.61;28.37
39363;BME280;25088;43.238;23.110;2023-03-18T14:48:42;96954.63;;;16.50;28.60
39363;BME280;25088;43.238;23.110;2023-03-18T14:51:29;96957.22;;;16.86;28.70
39363;BME280;25088;43.238;23.110;2023-03-18T14:54:04;96960.19;;;16.40;28.91
39363;BME280;25088;43.238;23.110;2023-03-18T14:56:40;96967.94;;;16.33;28.91
39363;BME280;25088;43.238;23.110;2023-03-18T14:59:13;96963.69;;;15.40;29.59
39363;BME280;25088;43.238;23.110;2023-03-18T15:01:44;96965.31;;;14.95;31.06
39363;BME280;25088;43.238;23.110;2023-03-18T15:04:17;96966.97;;;15.02;31.03
39363;BME280;25088;43.238;23.110;2023-03-18T15:06:43;96964.50;;;14.90;31.35
39363;BME280;25088;43.238;23.110;2023-03-18T15:09:15;96961.75;;;14.90;30.41
39363;BME280;25088;43.238;23.110;2023-03-18T15:11:44;96906.22;;;14.72;30.31